Socorro, NM

6:47 PM MDT on October 19, 2017 (GMT -0600)
Socorro Municipal

Weather History for KONM - July, 2014

Change the Weather History Date:

Monday, July 7, 2014

  Actual Average Record
Temperature  
Mean Temperature 78 °F -  
Max Temperature 93 °F 93 °F 97 °F (2013)
Min Temperature 62 °F 60 °F 62 °F (2012)
Cooling Degree Days 12    
Growing Degree Days 28 (Base 50)    
Moisture  
Dew Point 49 °F    
Average Humidity 42    
Maximum Humidity 79    
Minimum Humidity 12    
Precipitation  
Precipitation 0.00 in - - ()
Sea Level Pressure  
Sea Level Pressure 30.10 in    
Wind  
Wind Speed 7 mph (SSE)    
Max Wind Speed 14 mph    
Max Gust Speed 18 mph    
Visibility 10 miles    
Events      
Averages and records for this station are not official NWS values.
T = Trace of Precipitation, MM = Missing Value Source: NWS Daily Summary

Daily Weather History Graph

Daily Weather History Graph

Search for Another Location

Airport or City:

Trip Planner

Search our weather history database for the weather conditions in past years. The results will help you decide how hot, cold, wet, or windy it might be!

Date:

Astronomy

Jul. 07, 2014 Rise Set
Actual Time 6:02 AM MDT 8:22 PM MDT
Civil Twilight 5:33 AM MDT 8:50 PM MDT
Nautical Twilight 4:58 AM MDT 9:26 PM MDT
Astronomical Twilight 4:19 AM MDT 10:04 PM MDT
Moon 3:34 PM MDT (7/7) 1:49 AM MDT (7/7)
Length of Visible Light 15h 16m
Length of Day
14h 19m
Waxing Gibbous, 73% of the Moon is Illuminated
Jul 7
Waxing Gibbous
Jul 12
Full
Jul 18
Last Quarter
Jul 26
New
Aug 3
First Quarter

Hourly Weather History & Observations

Time (MDT) Temp. Heat Index Dew Point Humidity Pressure Visibility Wind Dir Wind Speed Gust Speed Precip Events Conditions
12:15 AM 71.8 °F - 54.9 °F 55% 30.15 in 10.0 mi SSW 6.9 mph - N/A   Clear
12:35 AM 72.5 °F - 54.3 °F 53% 30.14 in 10.0 mi South 6.9 mph - N/A   Clear
12:55 AM 72.5 °F - 54.5 °F 53% 30.15 in 10.0 mi SSE 6.9 mph - N/A   Clear
1:15 AM 71.6 °F - 54.7 °F 55% 30.15 in 10.0 mi South 4.6 mph - N/A   Clear
1:35 AM 70.7 °F - 55.4 °F 58% 30.16 in 10.0 mi South 5.8 mph - N/A   Clear
1:55 AM 70.2 °F - 55.4 °F 59% 30.16 in 10.0 mi SSE 8.1 mph - N/A   Clear
2:15 AM 69.1 °F - 55.4 °F 62% 30.15 in 10.0 mi SSE 8.1 mph - N/A   Clear
2:35 AM 68.2 °F - 55.4 °F 64% 30.15 in 10.0 mi South 8.1 mph - N/A   Clear
2:55 AM 67.6 °F - 55.4 °F 65% 30.15 in 10.0 mi SSE 8.1 mph - N/A   Clear
3:15 AM 66.9 °F - 55.4 °F 66% 30.14 in 10.0 mi South 8.1 mph - N/A   Clear
3:35 AM 66.6 °F - 55.4 °F 67% 30.14 in 10.0 mi South 8.1 mph - N/A   Clear
3:55 AM 66.2 °F - 55.4 °F 68% 30.14 in 10.0 mi SSE 6.9 mph - N/A   Clear
4:15 AM 64.4 °F - 55.9 °F 74% 30.14 in 10.0 mi SE 5.8 mph - N/A   Clear
4:35 AM 64.0 °F - 55.9 °F 75% 30.14 in 10.0 mi South 3.5 mph - N/A   Clear
4:55 AM 63.5 °F - 55.9 °F 76% 30.14 in 10.0 mi South 5.8 mph - N/A   Clear
5:15 AM 63.9 °F - 55.9 °F 75% 30.14 in 10.0 mi South 5.8 mph - N/A   Clear
5:35 AM 64.0 °F - 56.3 °F 76% 30.15 in 10.0 mi WSW 6.9 mph - N/A   Clear
5:55 AM 64.4 °F - 56.3 °F 75% 30.15 in 10.0 mi South 4.6 mph - N/A   Clear
6:15 AM 62.8 °F - 56.3 °F 79% 30.16 in 10.0 mi SSW 5.8 mph - N/A   Clear
6:35 AM 64.4 °F - 56.5 °F 75% 30.16 in 10.0 mi SSW 4.6 mph - N/A   Clear
6:55 AM 66.2 °F - 56.5 °F 71% 30.16 in 10.0 mi South 4.6 mph - N/A   Clear
7:15 AM 67.6 °F - 56.3 °F 67% 30.16 in 10.0 mi SSE 4.6 mph - N/A   Clear
7:35 AM 69.3 °F - 56.3 °F 63% 30.17 in 10.0 mi South 4.6 mph - N/A   Clear
7:55 AM 70.5 °F - 56.3 °F 61% 30.17 in 10.0 mi South 5.8 mph - N/A   Clear
8:15 AM 71.4 °F - 57.0 °F 60% 30.17 in 10.0 mi SE 5.8 mph - N/A   Clear
8:35 AM 71.8 °F - 56.8 °F 59% 30.18 in 10.0 mi ESE 5.8 mph - N/A   Clear
8:55 AM 72.9 °F - 57.4 °F 58% 30.17 in 10.0 mi SE 5.8 mph - N/A   Clear
9:15 AM 74.1 °F - 57.4 °F 56% 30.17 in 10.0 mi SE 6.9 mph - N/A   Clear
9:35 AM 75.4 °F - 57.7 °F 54% 30.17 in 10.0 mi SE 6.9 mph - N/A   Clear
9:55 AM 77.0 °F - 57.4 °F 51% 30.17 in 10.0 mi ESE 8.1 mph - N/A   Clear
10:15 AM 77.9 °F - 57.2 °F 49% 30.17 in 10.0 mi SE 6.9 mph - N/A   Clear
10:35 AM 79.2 °F - 57.2 °F 47% 30.16 in 10.0 mi SE 8.1 mph - N/A   Clear
10:55 AM 79.5 °F - 56.5 °F 45% 30.16 in 10.0 mi SSE 5.8 mph - N/A   Clear
11:15 AM 81.5 °F 81.3 °F 56.3 °F 42% 30.16 in 10.0 mi SE 8.1 mph - N/A   Clear
11:35 AM 82.2 °F 81.8 °F 56.3 °F 41% 30.15 in 10.0 mi South 6.9 mph - N/A   Clear
12:15 PM 84.6 °F 83.0 °F 53.1 °F 34% 30.14 in 10.0 mi ESE 8.1 mph - N/A   Clear
12:35 PM 85.5 °F - 50.9 °F 30% 30.14 in 10.0 mi ESE 8.1 mph - N/A   Clear
12:55 PM 86.7 °F - 46.9 °F 25% 30.13 in 10.0 mi SSE 5.8 mph - N/A   Clear
1:15 PM 88.2 °F - 42.6 °F 20% 30.12 in 10.0 mi East 5.8 mph - N/A   Clear
1:35 PM 88.2 °F - 42.6 °F 20% 30.11 in 10.0 mi South 6.9 mph - N/A   Clear
1:55 PM 89.6 °F - 40.5 °F 18% 30.10 in 10.0 mi South 4.6 mph - N/A   Clear
2:15 PM 90.3 °F - 38.5 °F 16% 30.10 in 10.0 mi ESE 5.8 mph - N/A   Clear
2:35 PM 90.7 °F - 35.4 °F 14% 30.08 in 10.0 mi South 9.2 mph - N/A   Clear
2:55 PM 91.4 °F - 32.2 °F 12% 30.07 in 10.0 mi SSE 5.8 mph - N/A   Clear
3:15 PM 92.3 °F - 38.3 °F 15% 30.06 in 10.0 mi South 10.4 mph - N/A   Clear
3:35 PM 92.8 °F - 39.4 °F 15% 30.05 in 10.0 mi South 9.2 mph - N/A   Clear
3:55 PM 91.9 °F - 39.7 °F 16% 30.04 in 10.0 mi South 8.1 mph - N/A   Clear
4:15 PM 93.0 °F - 39.7 °F 16% 30.03 in 10.0 mi South 5.8 mph 18.4 mph N/A   Clear
4:35 PM 93.6 °F - 41.7 °F 17% 30.02 in 10.0 mi SSE 12.7 mph - N/A   Clear
4:55 PM 93.0 °F - 41.0 °F 16% 30.01 in 10.0 mi SE 4.6 mph 16.1 mph N/A   Clear
5:15 PM 93.4 °F - 41.4 °F 16% 30.01 in 10.0 mi South 13.8 mph - N/A   Clear
5:35 PM 93.2 °F - 41.7 °F 17% 30.00 in 10.0 mi SSE 9.2 mph - N/A   Clear
5:55 PM 93.0 °F - 40.8 °F 16% 30.00 in 10.0 mi South 5.8 mph 16.1 mph N/A   Clear
6:15 PM 93.0 °F - 39.7 °F 16% 29.99 in 10.0 mi South 10.4 mph - N/A   Clear
6:35 PM 92.5 °F - 38.3 °F 15% 30.00 in 10.0 mi South 9.2 mph 16.1 mph N/A   Clear
6:55 PM 92.1 °F - 38.3 °F 15% 30.00 in 10.0 mi SSW 4.6 mph - N/A   Clear
7:15 PM 92.1 °F - 38.8 °F 15% 30.00 in 10.0 mi South 5.8 mph - N/A   Clear
7:35 PM 91.4 °F - 37.4 °F 15% 30.00 in 10.0 mi SSW 5.8 mph - N/A   Clear
7:55 PM 90.5 °F - 36.3 °F 15% 30.01 in 10.0 mi South 8.1 mph - N/A   Clear
8:15 PM 88.3 °F - 37.4 °F 17% 30.02 in 10.0 mi South 4.6 mph - N/A   Clear
8:55 PM 84.2 °F - 40.6 °F 21% 30.02 in 10.0 mi NW 6.9 mph - N/A   Mostly Cloudy
9:15 PM 83.7 °F - 40.1 °F 21% 30.03 in 10.0 mi SW 6.9 mph - N/A   Clear
9:35 PM 83.5 °F - 39.6 °F 21% 30.04 in 10.0 mi NE 8.1 mph - N/A   Clear
9:55 PM 80.2 °F - 45.9 °F 30% 30.05 in 10.0 mi ENE 6.9 mph - N/A   Clear
10:15 PM 78.8 °F - 47.1 °F 33% 30.06 in 10.0 mi NE 6.9 mph - N/A   Clear
10:35 PM 76.8 °F - 48.0 °F 36% 30.07 in 10.0 mi NNE 4.6 mph - N/A   Clear
11:15 PM 75.0 °F - 49.1 °F 40% 30.07 in 10.0 mi NNE 6.9 mph - N/A   Clear
11:35 PM 75.2 °F - 48.7 °F 39% 30.08 in 10.0 mi SE 5.8 mph - N/A   Clear
11:55 PM 74.8 °F - 48.7 °F 40% 30.08 in 10.0 mi SSW 3.5 mph - N/A   Clear